sensor_id;sensor_type;location;lat;lon;timestamp;pressure;altitude;pressure_sealevel;temperature;humidity
77639;BME280;66802;52.574;14.398;2023-10-31T00:01:20;99701.91;;;10.60;100.00
77639;BME280;66802;52.574;14.398;2023-10-31T00:03:46;99698.84;;;10.64;100.00
77639;BME280;66802;52.574;14.398;2023-10-31T00:06:11;99681.47;;;10.66;100.00
77639;BME280;66802;52.574;14.398;2023-10-31T00:08:37;99672.53;;;10.66;100.00
77639;BME280;66802;52.574;14.398;2023-10-31T00:11:03;99663.22;;;10.68;100.00
77639;BME280;66802;52.574;14.398;2023-10-31T00:13:28;99648.41;;;10.64;100.00
77639;BME280;66802;52.574;14.398;2023-10-31T00:15:54;99641.16;;;10.65;100.00
77639;BME280;66802;52.574;14.398;2023-10-31T00:18:19;99638.97;;;10.60;100.00
77639;BME280;66802;52.574;14.398;2023-10-31T00:20:46;99625.31;;;10.61;100.00
77639;BME280;66802;52.574;14.398;2023-10-31T00:23:12;99615.75;;;10.59;100.00
77639;BME280;66802;52.574;14.398;2023-10-31T00:25:37;99603.63;;;10.55;100.00
77639;BME280;66802;52.574;14.398;2023-10-31T00:28:03;99598.97;;;10.49;100.00
77639;BME280;66802;52.574;14.398;2023-10-31T00:30:29;99584.25;;;10.51;100.00
77639;BME280;66802;52.574;14.398;2023-10-31T00:32:54;99585.56;;;10.55;100.00
77639;BME280;66802;52.574;14.398;2023-10-31T00:35:20;99573.75;;;10.56;100.00
77639;BME280;66802;52.574;14.398;2023-10-31T00:37:45;99586.84;;;10.45;100.00
77639;BME280;66802;52.574;14.398;2023-10-31T00:40:11;99578.41;;;10.48;100.00
77639;BME280;66802;52.574;14.398;2023-10-31T00:42:39;99574.13;;;10.53;100.00
77639;BME280;66802;52.574;14.398;2023-10-31T00:45:07;99567.41;;;10.49;100.00
77639;BME280;66802;52.574;14.398;2023-10-31T00:47:33;99571.28;;;10.32;100.00
77639;BME280;66802;52.574;14.398;2023-10-31T00:49:59;99580.50;;;10.38;100.00
77639;BME280;66802;52.574;14.398;2023-10-31T00:52:24;99570.91;;;10.35;100.00
77639;BME280;66802;52.574;14.398;2023-10-31T00:54:50;99578.25;;;10.27;100.00
77639;BME280;66802;52.574;14.398;2023-10-31T00:57:16;99599.19;;;10.16;100.00
77639;BME280;66802;52.574;14.398;2023-10-31T00:59:41;99586.19;;;10.20;100.00
77639;BME280;66802;52.574;14.398;2023-10-31T04:00:46;99367.44;;;10.00;100.00
77639;BME280;66802;52.574;14.398;2023-10-31T04:03:11;99381.75;;;10.01;100.00
77639;BME280;66802;52.574;14.398;2023-10-31T04:05:37;99372.84;;;10.00;100.00
77639;BME280;66802;52.574;14.398;2023-10-31T04:08:03;99366.78;;;9.98;100.00
77639;BME280;66802;52.574;14.398;2023-10-31T04:10:28;99365.75;;;9.99;100.00
77639;BME280;66802;52.574;14.398;2023-10-31T04:12:54;99365.03;;;10.05;100.00
77639;BME280;66802;52.574;14.398;2023-10-31T04:15:19;99367.09;;;10.03;100.00
77639;BME280;66802;52.574;14.398;2023-10-31T04:17:45;99365.03;;;10.05;100.00
77639;BME280;66802;52.574;14.398;2023-10-31T04:20:10;99365.41;;;10.02;100.00
77639;BME280;66802;52.574;14.398;2023-10-31T04:22:36;99366.41;;;10.01;100.00
77639;BME280;66802;52.574;14.398;2023-10-31T04:25:02;99363.53;;;10.03;100.00
77639;BME280;66802;52.574;14.398;2023-10-31T04:27:28;99377.22;;;10.01;100.00
77639;BME280;66802;52.574;14.398;2023-10-31T04:29:53;99373.00;;;9.99;100.00
77639;BME280;66802;52.574;14.398;2023-10-31T04:32:19;99381.94;;;9.99;100.00
77639;BME280;66802;52.574;14.398;2023-10-31T04:34:44;99380.25;;;9.98;100.00
77639;BME280;66802;52.574;14.398;2023-10-31T04:37:10;99378.88;;;10.02;100.00
77639;BME280;66802;52.574;14.398;2023-10-31T04:39:35;99376.44;;;10.07;100.00
77639;BME280;66802;52.574;14.398;2023-10-31T04:42:01;99372.75;;;10.08;100.00
77639;BME280;66802;52.574;14.398;2023-10-31T04:44:26;99364.28;;;10.11;100.00
77639;BME280;66802;52.574;14.398;2023-10-31T04:46:52;99363.63;;;10.09;100.00
77639;BME280;66802;52.574;14.398;2023-10-31T04:49:17;99368.56;;;10.06;100.00
77639;BME280;66802;52.574;14.398;2023-10-31T04:51:43;99367.34;;;10.08;100.00
77639;BME280;66802;52.574;14.398;2023-10-31T04:54:09;99361.06;;;10.16;100.00
77639;BME280;66802;52.574;14.398;2023-10-31T04:56:35;99362.25;;;10.13;100.00
77639;BME280;66802;52.574;14.398;2023-10-31T04:59:01;99364.41;;;10.18;100.00
77639;BME280;66802;52.574;14.398;2023-10-31T05:01:27;99358.09;;;10.26;100.00
77639;BME280;66802;52.574;14.398;2023-10-31T05:03:52;99359.09;;;10.54;100.00
77639;BME280;66802;52.574;14.398;2023-10-31T05:06:19;99353.19;;;10.80;100.00
77639;BME280;66802;52.574;14.398;2023-10-31T05:08:45;99352.25;;;11.09;100.00
77639;BME280;66802;52.574;14.398;2023-10-31T05:11:11;99349.88;;;11.20;100.00
77639;BME280;66802;52.574;14.398;2023-10-31T05:13:38;99344.53;;;11.27;100.00
77639;BME280;66802;52.574;14.398;2023-10-31T05:16:04;99346.28;;;11.34;100.00
77639;BME280;66802;52.574;14.398;2023-10-31T05:18:29;99350.69;;;11.36;100.00
77639;BME280;66802;52.574;14.398;2023-10-31T05:20:55;99345.03;;;11.37;100.00
77639;BME280;66802;52.574;14.398;2023-10-31T05:23:20;99337.59;;;11.39;100.00
77639;BME280;66802;52.574;14.398;2023-10-31T05:25:46;99340.94;;;11.41;100.00
77639;BME280;66802;52.574;14.398;2023-10-31T05:28:11;99334.69;;;11.41;100.00
77639;BME280;66802;52.574;14.398;2023-10-31T05:30:37;99339.47;;;11.39;100.00
77639;BME280;66802;52.574;14.398;2023-10-31T05:33:02;99333.22;;;11.38;100.00
77639;BME280;66802;52.574;14.398;2023-10-31T05:35:28;99332.19;;;11.39;100.00
77639;BME280;66802;52.574;14.398;2023-10-31T05:37:53;99330.50;;;11.38;100.00
77639;BME280;66802;52.574;14.398;2023-10-31T05:40:19;99325.75;;;11.40;100.00
77639;BME280;66802;52.574;14.398;2023-10-31T05:42:47;99324.28;;;11.38;100.00
77639;BME280;66802;52.574;14.398;2023-10-31T05:45:13;99322.22;;;11.40;100.00
77639;BME280;66802;52.574;14.398;2023-10-31T05:47:38;99332.00;;;11.41;100.00
77639;BME280;66802;52.574;14.398;2023-10-31T05:50:04;99341.59;;;11.43;100.00
77639;BME280;66802;52.574;14.398;2023-10-31T05:52:31;99330.78;;;11.43;100.00
77639;BME280;66802;52.574;14.398;2023-10-31T05:54:58;99340.09;;;11.41;100.00
77639;BME280;66802;52.574;14.398;2023-10-31T05:57:24;99352.13;;;11.38;100.00
77639;BME280;66802;52.574;14.398;2023-10-31T05:59:49;99350.44;;;11.37;100.00
77639;BME280;66802;52.574;14.398;2023-10-31T06:02:15;99359.59;;;11.36;100.00
77639;BME280;66802;52.574;14.398;2023-10-31T06:04:40;99370.41;;;11.36;100.00
77639;BME280;66802;52.574;14.398;2023-10-31T06:07:06;99372.28;;;11.36;100.00
77639;BME280;66802;52.574;14.398;2023-10-31T06:09:32;99374.16;;;11.35;100.00
77639;BME280;66802;52.574;14.398;2023-10-31T06:12:01;99389.97;;;11.38;100.00
77639;BME280;66802;52.574;14.398;2023-10-31T06:14:27;99392.66;;;11.38;100.00
77639;BME280;66802;52.574;14.398;2023-10-31T06:16:52;99390.78;;;11.39;100.00
77639;BME280;66802;52.574;14.398;2023-10-31T06:19:20;99397.41;;;11.36;100.00
77639;BME280;66802;52.574;14.398;2023-10-31T06:21:46;99405.31;;;11.38;100.00
77639;BME280;66802;52.574;14.398;2023-10-31T06:24:11;99407.84;;;11.39;100.00
77639;BME280;66802;52.574;14.398;2023-10-31T06:26:37;99415.13;;;11.39;100.00
77639;BME280;66802;52.574;14.398;2023-10-31T06:29:02;99418.47;;;11.41;100.00
77639;BME280;66802;52.574;14.398;2023-10-31T06:31:29;99411.56;;;11.38;100.00
77639;BME280;66802;52.574;14.398;2023-10-31T06:33:54;99419.69;;;11.38;100.00
77639;BME280;66802;52.574;14.398;2023-10-31T06:36:20;99429.47;;;11.39;100.00
77639;BME280;66802;52.574;14.398;2023-10-31T06:38:45;99425.53;;;11.42;100.00
77639;BME280;66802;52.574;14.398;2023-10-31T06:41:11;99436.34;;;11.42;100.00
77639;BME280;66802;52.574;14.398;2023-10-31T06:43:37;99424.72;;;11.41;100.00
77639;BME280;66802;52.574;14.398;2023-10-31T06:46:02;99423.69;;;11.42;100.00
77639;BME280;66802;52.574;14.398;2023-10-31T06:48:29;99420.97;;;11.42;100.00
77639;BME280;66802;52.574;14.398;2023-10-31T06:50:55;99427.59;;;11.40;100.00
77639;BME280;66802;52.574;14.398;2023-10-31T06:53:20;99425.91;;;11.39;100.00
77639;BME280;66802;52.574;14.398;2023-10-31T06:55:46;99436.91;;;11.37;100.00
77639;BME280;66802;52.574;14.398;2023-10-31T06:58:11;99431.97;;;11.41;100.00
77639;BME280;66802;52.574;14.398;2023-10-31T07:00:37;99439.06;;;11.42;100.00
77639;BME280;66802;52.574;14.398;2023-10-31T07:03:05;99438.69;;;11.45;100.00
77639;BME280;66802;52.574;14.398;2023-10-31T07:05:37;99444.91;;;11.45;100.00
77639;BME280;66802;52.574;14.398;2023-10-31T07:08:04;99454.50;;;11.48;100.00
77639;BME280;66802;52.574;14.398;2023-10-31T07:10:30;99453.66;;;11.47;100.00
77639;BME280;66802;52.574;14.398;2023-10-31T07:12:56;99456.16;;;11.49;100.00
77639;BME280;66802;52.574;14.398;2023-10-31T07:15:21;99451.41;;;11.51;100.00
77639;BME280;66802;52.574;14.398;2023-10-31T07:17:47;99461.19;;;11.52;100.00
77639;BME280;66802;52.574;14.398;2023-10-31T07:20:13;99468.28;;;11.53;100.00
77639;BME280;66802;52.574;14.398;2023-10-31T07:22:39;99468.28;;;11.53;100.00
77639;BME280;66802;52.574;14.398;2023-10-31T07:25:06;99467.06;;;11.55;100.00
77639;BME280;66802;52.574;14.398;2023-10-31T07:27:31;99481.59;;;11.54;100.00
77639;BME280;66802;52.574;14.398;2023-10-31T07:29:57;99481.41;;;11.56;100.00
77639;BME280;66802;52.574;14.398;2023-10-31T07:32:22;99488.28;;;11.58;100.00
77639;BME280;66802;52.574;14.398;2023-10-31T07:34:48;99480.16;;;11.58;100.00
77639;BME280;66802;52.574;14.398;2023-10-31T07:37:13;99483.53;;;11.60;100.00
77639;BME280;66802;52.574;14.398;2023-10-31T07:39:39;99483.34;;;11.62;100.00
77639;BME280;66802;52.574;14.398;2023-10-31T07:42:05;99485.00;;;11.63;100.00
77639;BME280;66802;52.574;14.398;2023-10-31T07:44:30;99488.38;;;11.65;100.00
77639;BME280;66802;52.574;14.398;2023-10-31T07:46:56;99490.88;;;11.66;100.00
77639;BME280;66802;52.574;14.398;2023-10-31T07:49:21;99500.06;;;11.72;100.00
77639;BME280;66802;52.574;14.398;2023-10-31T07:51:48;99493.31;;;11.76;100.00
77639;BME280;66802;52.574;14.398;2023-10-31T07:54:14;99489.38;;;11.79;100.00
77639;BME280;66802;52.574;14.398;2023-10-31T07:56:41;99487.94;;;11.83;100.00
77639;BME280;66802;52.574;14.398;2023-10-31T07:59:07;99483.44;;;11.90;100.00
77639;BME280;66802;52.574;14.398;2023-10-31T08:01:33;99477.81;;;11.91;100.00
77639;BME280;66802;52.574;14.398;2023-10-31T08:03:59;99481.63;;;11.97;100.00
77639;BME280;66802;52.574;14.398;2023-10-31T08:06:25;99483.56;;;12.03;100.00
77639;BME280;66802;52.574;14.398;2023-10-31T08:08:50;99475.72;;;12.08;100.00
77639;BME280;66802;52.574;14.398;2023-10-31T08:11:16;99481.75;;;12.10;100.00
77639;BME280;66802;52.574;14.398;2023-10-31T08:13:42;99491.16;;;12.14;100.00
77639;BME280;66802;52.574;14.398;2023-10-31T08:16:08;99487.59;;;12.14;100.00
77639;BME280;66802;52.574;14.398;2023-10-31T08:18:33;99494.75;;;12.21;100.00
77639;BME280;66802;52.574;14.398;2023-10-31T08:20:59;99492.28;;;12.26;100.00
77639;BME280;66802;52.574;14.398;2023-10-31T08:23:25;99499.84;;;12.31;100.00
77639;BME280;66802;52.574;14.398;2023-10-31T08:25:51;99504.84;;;12.34;100.00
77639;BME280;66802;52.574;14.398;2023-10-31T08:28:17;99508.84;;;12.38;100.00
77639;BME280;66802;52.574;14.398;2023-10-31T08:30:42;99517.97;;;12.37;100.00
77639;BME280;66802;52.574;14.398;2023-10-31T08:33:08;99519.00;;;12.36;100.00
77639;BME280;66802;52.574;14.398;2023-10-31T08:35:33;99530.66;;;12.36;100.00
77639;BME280;66802;52.574;14.398;2023-10-31T08:37:59;99546.91;;;12.36;100.00
77639;BME280;66802;52.574;14.398;2023-10-31T08:40:25;99558.13;;;12.33;100.00
77639;BME280;66802;52.574;14.398;2023-10-31T08:42:50;99552.59;;;12.20;100.00
77639;BME280;66802;52.574;14.398;2023-10-31T08:45:16;99554.00;;;12.16;100.00
77639;BME280;66802;52.574;14.398;2023-10-31T08:47:41;99557.50;;;12.10;100.00
77639;BME280;66802;52.574;14.398;2023-10-31T08:50:07;99550.59;;;12.07;100.00
77639;BME280;66802;52.574;14.398;2023-10-31T08:52:34;99553.50;;;12.06;100.00
77639;BME280;66802;52.574;14.398;2023-10-31T08:55:00;99560.31;;;12.02;100.00
77639;BME280;66802;52.574;14.398;2023-10-31T08:57:26;99559.03;;;11.98;100.00
77639;BME280;66802;52.574;14.398;2023-10-31T08:59:51;99562.50;;;11.92;100.00
77639;BME280;66802;52.574;14.398;2023-10-31T09:02:17;99581.00;;;11.88;99.53
77639;BME280;66802;52.574;14.398;2023-10-31T09:04:42;99578.84;;;11.84;98.14
77639;BME280;66802;52.574;14.398;2023-10-31T09:07:07;99575.31;;;11.83;97.42
77639;BME280;66802;52.574;14.398;2023-10-31T09:09:33;99571.78;;;11.83;96.92
77639;BME280;66802;52.574;14.398;2023-10-31T09:11:58;99578.28;;;11.88;97.46
77639;BME280;66802;52.574;14.398;2023-10-31T09:14:24;99593.09;;;11.92;96.46
77639;BME280;66802;52.574;14.398;2023-10-31T09:16:49;99579.66;;;11.99;96.60
77639;BME280;66802;52.574;14.398;2023-10-31T09:19:15;99600.69;;;12.03;95.01
77639;BME280;66802;52.574;14.398;2023-10-31T09:21:40;99594.06;;;12.06;94.96
77639;BME280;66802;52.574;14.398;2023-10-31T09:24:07;99599.94;;;12.10;93.00
77639;BME280;66802;52.574;14.398;2023-10-31T09:26:33;99585.81;;;12.14;94.78
77639;BME280;66802;52.574;14.398;2023-10-31T09:28:58;99596.75;;;12.21;94.67
77639;BME280;66802;52.574;14.398;2023-10-31T09:31:24;99599.69;;;12.26;93.47
77639;BME280;66802;52.574;14.398;2023-10-31T09:33:50;99595.94;;;12.27;92.27
77639;BME280;66802;52.574;14.398;2023-10-31T09:36:16;99595.75;;;12.28;92.25
77639;BME280;66802;52.574;14.398;2023-10-31T09:38:41;99605.63;;;12.36;92.47
77639;BME280;66802;52.574;14.398;2023-10-31T09:41:07;99612.50;;;12.38;90.10
77639;BME280;66802;52.574;14.398;2023-10-31T09:43:33;99610.31;;;12.27;89.72
77639;BME280;66802;52.574;14.398;2023-10-31T09:45:58;99621.72;;;12.23;90.34
77639;BME280;66802;52.574;14.398;2023-10-31T09:48:28;99641.25;;;12.18;89.79
77639;BME280;66802;52.574;14.398;2023-10-31T09:50:53;99642.47;;;12.16;91.25
77639;BME280;66802;52.574;14.398;2023-10-31T09:53:20;99641.16;;;12.12;90.01
77639;BME280;66802;52.574;14.398;2023-10-31T09:55:46;99645.28;;;12.07;89.33
77639;BME280;66802;52.574;14.398;2023-10-31T09:58:12;99642.50;;;12.01;88.96
77639;BME280;66802;52.574;14.398;2023-10-31T10:00:38;99643.13;;;12.03;88.58
77639;BME280;66802;52.574;14.398;2023-10-31T10:03:08;99636.34;;;12.07;89.80
77639;BME280;66802;52.574;14.398;2023-10-31T10:05:38;99643.34;;;12.23;87.75
77639;BME280;66802;52.574;14.398;2023-10-31T10:08:06;99640.09;;;12.27;85.96
77639;BME280;66802;52.574;14.398;2023-10-31T10:10:33;99636.41;;;12.35;86.66
77639;BME280;66802;52.574;14.398;2023-10-31T10:12:59;99655.31;;;12.50;87.37
77639;BME280;66802;52.574;14.398;2023-10-31T10:15:28;99656.47;;;12.62;85.03
77639;BME280;66802;52.574;14.398;2023-10-31T10:17:53;99649.00;;;12.64;83.99
77639;BME280;66802;52.574;14.398;2023-10-31T10:20:19;99647.31;;;12.63;82.73
77639;BME280;66802;52.574;14.398;2023-10-31T10:22:46;99650.78;;;12.57;82.83
77639;BME280;66802;52.574;14.398;2023-10-31T10:25:18;99667.72;;;12.44;82.69
77639;BME280;66802;52.574;14.398;2023-10-31T10:27:45;99671.91;;;12.25;80.38
77639;BME280;66802;52.574;14.398;2023-10-31T10:30:13;99673.53;;;12.20;82.11
77639;BME280;66802;52.574;14.398;2023-10-31T10:32:39;99682.47;;;12.20;84.14
77639;BME280;66802;52.574;14.398;2023-10-31T10:35:06;99678.53;;;12.23;82.98
77639;BME280;66802;52.574;14.398;2023-10-31T10:37:31;99690.41;;;12.22;82.53
77639;BME280;66802;52.574;14.398;2023-10-31T10:39:57;99696.38;;;12.17;81.76
77639;BME280;66802;52.574;14.398;2023-10-31T10:45:04;99694.44;;;12.11;83.43
77639;BME280;66802;52.574;14.398;2023-10-31T10:47:31;99682.56;;;12.12;82.84
77639;BME280;66802;52.574;14.398;2023-10-31T10:49:59;99683.75;;;12.24;83.97
77639;BME280;66802;52.574;14.398;2023-10-31T10:52:49;99675.28;;;12.49;83.01
77639;BME280;66802;52.574;14.398;2023-10-31T10:55:21;99687.28;;;12.61;81.88
77639;BME280;66802;52.574;14.398;2023-10-31T10:58:03;99686.06;;;12.63;79.87
77639;BME280;66802;52.574;14.398;2023-10-31T11:00:30;99681.84;;;12.61;81.04
77639;BME280;66802;52.574;14.398;2023-10-31T11:02:57;99686.06;;;12.63;80.42
77639;BME280;66802;52.574;14.398;2023-10-31T11:05:26;99692.94;;;12.66;80.88
77639;BME280;66802;52.574;14.398;2023-10-31T11:07:52;99697.44;;;12.80;80.58
77639;BME280;66802;52.574;14.398;2023-10-31T11:10:21;99691.06;;;12.88;79.80
77639;BME280;66802;52.574;14.398;2023-10-31T11:12:46;99691.06;;;12.88;79.14
77639;BME280;66802;52.574;14.398;2023-10-31T11:15:15;99692.69;;;12.82;79.67
77639;BME280;66802;52.574;14.398;2023-10-31T11:17:45;99689.19;;;12.88;79.08
77639;BME280;66802;52.574;14.398;2023-10-31T11:20:14;99702.16;;;12.93;78.75
77639;BME280;66802;52.574;14.398;2023-10-31T11:22:42;99706.53;;;12.94;80.26
77639;BME280;66802;52.574;14.398;2023-10-31T11:25:12;99714.41;;;12.89;78.12
77639;BME280;66802;52.574;14.398;2023-10-31T11:27:38;99720.16;;;12.79;78.64
77639;BME280;66802;52.574;14.398;2023-10-31T11:30:08;99708.94;;;12.82;78.42
77639;BME280;66802;52.574;14.398;2023-10-31T11:32:49;99708.56;;;12.85;77.43
77639;BME280;66802;52.574;14.398;2023-10-31T11:35:16;99712.44;;;12.76;77.17
77639;BME280;66802;52.574;14.398;2023-10-31T11:37:42;99705.25;;;12.68;76.61
77639;BME280;66802;52.574;14.398;2023-10-31T11:40:21;99715.84;;;12.63;76.27
77639;BME280;66802;52.574;14.398;2023-10-31T11:42:56;99708.56;;;12.64;76.77
77639;BME280;66802;52.574;14.398;2023-10-31T11:47:56;99731.13;;;12.71;75.84
77639;BME280;66802;52.574;14.398;2023-10-31T11:50:23;99746.56;;;12.77;77.10
77639;BME280;66802;52.574;14.398;2023-10-31T11:53:02;99742.00;;;12.77;75.28
77639;BME280;66802;52.574;14.398;2023-10-31T11:55:31;99741.69;;;12.87;77.11
77639;BME280;66802;52.574;14.398;2023-10-31T11:57:57;99738.16;;;13.08;76.16
77639;BME280;66802;52.574;14.398;2023-10-31T12:00:24;99745.19;;;13.24;75.02
77639;BME280;66802;52.574;14.398;2023-10-31T12:03:00;99739.47;;;13.40;75.11
77639;BME280;66802;52.574;14.398;2023-10-31T12:05:26;99732.81;;;13.42;73.69
77639;BME280;66802;52.574;14.398;2023-10-31T12:07:51;99725.31;;;13.44;73.74
77639;BME280;66802;52.574;14.398;2023-10-31T12:10:25;99732.88;;;13.49;73.62
77639;BME280;66802;52.574;14.398;2023-10-31T12:12:53;99734.34;;;13.51;73.98
77639;BME280;66802;52.574;14.398;2023-10-31T12:15:18;99739.03;;;13.36;71.75
77639;BME280;66802;52.574;14.398;2023-10-31T12:17:44;99736.50;;;13.13;72.34
77639;BME280;66802;52.574;14.398;2023-10-31T12:20:10;99737.03;;;13.02;73.85
77639;BME280;66802;52.574;14.398;2023-10-31T12:22:36;99753.91;;;12.98;73.65
77639;BME280;66802;52.574;14.398;2023-10-31T12:25:07;99746.16;;;12.95;74.03
77639;BME280;66802;52.574;14.398;2023-10-31T12:27:49;99751.28;;;12.90;74.74
77639;BME280;66802;52.574;14.398;2023-10-31T12:30:17;99745.44;;;12.86;74.91
77639;BME280;66802;52.574;14.398;2023-10-31T12:32:44;99750.22;;;12.84;75.50
77639;BME280;66802;52.574;14.398;2023-10-31T12:35:12;99750.78;;;12.79;73.47
77639;BME280;66802;52.574;14.398;2023-10-31T12:37:46;99745.56;;;12.78;73.83
77639;BME280;66802;52.574;14.398;2023-10-31T12:40:17;99753.25;;;12.74;75.37
77639;BME280;66802;52.574;14.398;2023-10-31T12:42:45;99751.28;;;12.68;74.27
77639;BME280;66802;52.574;14.398;2023-10-31T12:45:12;99762.72;;;12.64;75.22
77639;BME280;66802;52.574;14.398;2023-10-31T12:47:38;99766.16;;;12.58;76.18
77639;BME280;66802;52.574;14.398;2023-10-31T12:50:12;99772.19;;;12.53;77.09
77639;BME280;66802;52.574;14.398;2023-10-31T12:52:52;99779.53;;;12.44;77.72
77639;BME280;66802;52.574;14.398;2023-10-31T12:55:22;99777.44;;;12.40;78.10
77639;BME280;66802;52.574;14.398;2023-10-31T12:57:50;99791.16;;;12.38;78.70
77639;BME280;66802;52.574;14.398;2023-10-31T13:00:18;99796.56;;;12.38;80.06
77639;BME280;66802;52.574;14.398;2023-10-31T13:03:11;99781.16;;;12.39;79.99
77639;BME280;66802;52.574;14.398;2023-10-31T13:05:37;99787.97;;;12.35;79.86
77639;BME280;66802;52.574;14.398;2023-10-31T13:08:13;99793.78;;;12.32;80.22
77639;BME280;66802;52.574;14.398;2023-10-31T13:10:39;99804.97;;;12.29;81.01
77639;BME280;66802;52.574;14.398;2023-10-31T13:13:05;99826.81;;;12.27;81.41
77639;BME280;66802;52.574;14.398;2023-10-31T13:15:30;99830.06;;;12.23;82.26
77639;BME280;66802;52.574;14.398;2023-10-31T13:17:56;99839.22;;;12.22;82.68
77639;BME280;66802;52.574;14.398;2023-10-31T13:20:22;99836.53;;;12.22;82.79
77639;BME280;66802;52.574;14.398;2023-10-31T13:22:48;99826.91;;;12.19;83.12
77639;BME280;66802;52.574;14.398;2023-10-31T13:25:15;99845.19;;;12.17;84.35
77639;BME280;66802;52.574;14.398;2023-10-31T13:27:43;99845.09;;;12.11;85.21
77639;BME280;66802;52.574;14.398;2023-10-31T13:30:11;99861.34;;;12.11;84.65
77639;BME280;66802;52.574;14.398;2023-10-31T13:32:37;99863.00;;;12.12;85.40
77639;BME280;66802;52.574;14.398;2023-10-31T13:35:04;99858.25;;;12.14;84.31
77639;BME280;66802;52.574;14.398;2023-10-31T13:37:30;99855.34;;;12.15;83.20
77639;BME280;66802;52.574;14.398;2023-10-31T13:39:56;99856.84;;;12.18;83.26
77639;BME280;66802;52.574;14.398;2023-10-31T13:42:21;99866.47;;;12.20;82.25
77639;BME280;66802;52.574;14.398;2023-10-31T13:44:47;99878.78;;;12.23;81.52
77639;BME280;66802;52.574;14.398;2023-10-31T13:47:14;99871.31;;;12.25;82.00
77639;BME280;66802;52.574;14.398;2023-10-31T13:49:39;99879.06;;;12.28;81.76
77639;BME280;66802;52.574;14.398;2023-10-31T13:52:05;99889.03;;;12.27;80.78
77639;BME280;66802;52.574;14.398;2023-10-31T13:54:32;99882.78;;;12.27;80.27
77639;BME280;66802;52.574;14.398;2023-10-31T13:56:57;99879.06;;;12.28;80.42
77639;BME280;66802;52.574;14.398;2023-10-31T13:59:24;99883.63;;;12.27;80.36
77639;BME280;66802;52.574;14.398;2023-10-31T14:01:49;99892.78;;;12.26;79.63
77639;BME280;66802;52.574;14.398;2023-10-31T14:04:15;99896.50;;;12.25;80.00
77639;BME280;66802;52.574;14.398;2023-10-31T14:06:41;99905.00;;;12.22;79.86
77639;BME280;66802;52.574;14.398;2023-10-31T14:09:09;99904.34;;;12.20;79.64
77639;BME280;66802;52.574;14.398;2023-10-31T14:11:36;99908.44;;;12.16;79.91
77639;BME280;66802;52.574;14.398;2023-10-31T14:14:02;99914.53;;;12.18;81.39
77639;BME280;66802;52.574;14.398;2023-10-31T14:16:38;99910.50;;;12.14;80.91
77639;BME280;66802;52.574;14.398;2023-10-31T14:19:07;99920.88;;;12.11;80.49
77639;BME280;66802;52.574;14.398;2023-10-31T14:21:34;99918.34;;;12.09;79.33
77639;BME280;66802;52.574;14.398;2023-10-31T14:24:00;99922.44;;;12.05;80.17
77639;BME280;66802;52.574;14.398;2023-10-31T14:26:26;99919.91;;;12.03;78.90
77639;BME280;66802;52.574;14.398;2023-10-31T14:28:52;99928.69;;;12.05;79.31
77639;BME280;66802;52.574;14.398;2023-10-31T14:31:18;99926.16;;;12.04;78.61
77639;BME280;66802;52.574;14.398;2023-10-31T14:33:46;99920.56;;;12.05;77.51
77639;BME280;66802;52.574;14.398;2023-10-31T14:36:13;99933.91;;;12.07;78.70
77639;BME280;66802;52.574;14.398;2023-10-31T14:38:39;99932.03;;;12.07;78.71
77639;BME280;66802;52.574;14.398;2023-10-31T14:41:06;99937.47;;;12.07;78.43
77639;BME280;66802;52.574;14.398;2023-10-31T14:43:33;99947.44;;;12.07;78.47
77639;BME280;66802;52.574;14.398;2023-10-31T14:45:59;99950.50;;;12.04;78.88
77639;BME280;66802;52.574;14.398;2023-10-31T14:48:24;99953.09;;;11.97;80.43
77639;BME280;66802;52.574;14.398;2023-10-31T14:50:50;99955.03;;;11.89;81.48
77639;BME280;66802;52.574;14.398;2023-10-31T14:53:17;99965.28;;;11.79;82.11
77639;BME280;66802;52.574;14.398;2023-10-31T14:55:44;99968.34;;;11.76;82.82
77639;BME280;66802;52.574;14.398;2023-10-31T14:58:10;99969.31;;;11.75;82.26
77639;BME280;66802;52.574;14.398;2023-10-31T15:00:36;99966.78;;;11.73;82.49
77639;BME280;66802;52.574;14.398;2023-10-31T15:03:03;99975.75;;;11.74;80.91
77639;BME280;66802;52.574;14.398;2023-10-31T15:05:28;99981.84;;;11.76;80.98
77639;BME280;66802;52.574;14.398;2023-10-31T15:07:54;99985.22;;;11.78;81.17
77639;BME280;66802;52.574;14.398;2023-10-31T15:10:20;99988.94;;;11.77;80.73
77639;BME280;66802;52.574;14.398;2023-10-31T15:12:46;99979.16;;;11.76;80.10
77639;BME280;66802;52.574;14.398;2023-10-31T15:15:14;99986.56;;;11.74;79.58
77639;BME280;66802;52.574;14.398;2023-10-31T15:17:40;99994.19;;;11.70;80.09
77639;BME280;66802;52.574;14.398;2023-10-31T15:20:06;99990.34;;;11.64;79.90
77639;BME280;66802;52.574;14.398;2023-10-31T15:22:32;99990.34;;;11.64;79.67
77639;BME280;66802;52.574;14.398;2023-10-31T15:24:57;99983.44;;;11.62;79.94
77639;BME280;66802;52.574;14.398;2023-10-31T15:27:23;99996.47;;;11.58;79.96
77639;BME280;66802;52.574;14.398;2023-10-31T15:29:48;99985.53;;;11.52;80.26
77639;BME280;66802;52.574;14.398;2023-10-31T15:32:14;99994.38;;;11.46;81.33
77639;BME280;66802;52.574;14.398;2023-10-31T15:34:40;99990.16;;;11.43;82.06
77639;BME280;66802;52.574;14.398;2023-10-31T15:37:08;99998.50;;;11.33;82.93
77639;BME280;66802;52.574;14.398;2023-10-31T15:39:34;100003.75;;;11.27;83.99
77639;BME280;66802;52.574;14.398;2023-10-31T15:42:00;100002.59;;;11.21;84.93
77639;BME280;66802;52.574;14.398;2023-10-31T15:44:26;99987.47;;;11.12;87.16
77639;BME280;66802;52.574;14.398;2023-10-31T15:46:51;100007.78;;;11.00;89.46